sensor_id;sensor_type;location;lat;lon;timestamp;P1;durP1;ratioP1;P2;durP2;ratioP2
40815;SDS011;26535;48.788;9.214;2024-02-15T00:00:52;3.45;;;1.15;;
40815;SDS011;26535;48.788;9.214;2024-02-15T00:03:18;2.88;;;0.98;;
40815;SDS011;26535;48.788;9.214;2024-02-15T00:05:45;3.30;;;0.98;;
40815;SDS011;26535;48.788;9.214;2024-02-15T00:08:11;4.43;;;1.00;;
40815;SDS011;26535;48.788;9.214;2024-02-15T00:10:37;3.40;;;0.88;;
40815;SDS011;26535;48.788;9.214;2024-02-15T00:13:03;3.13;;;0.85;;
40815;SDS011;26535;48.788;9.214;2024-02-15T00:15:31;3.40;;;1.00;;
40815;SDS011;26535;48.788;9.214;2024-02-15T06:02:45;14.98;;;4.30;;
40815;SDS011;26535;48.788;9.214;2024-02-15T06:05:10;8.75;;;3.88;;
40815;SDS011;26535;48.788;9.214;2024-02-15T06:07:36;8.45;;;3.15;;
40815;SDS011;26535;48.788;9.214;2024-02-15T06:10:02;9.77;;;3.40;;
40815;SDS011;26535;48.788;9.214;2024-02-15T06:12:29;6.97;;;3.20;;
40815;SDS011;26535;48.788;9.214;2024-02-15T06:14:55;8.25;;;3.40;;
40815;SDS011;26535;48.788;9.214;2024-02-15T06:17:20;8.27;;;3.30;;
40815;SDS011;26535;48.788;9.214;2024-02-15T06:19:46;10.20;;;3.50;;
40815;SDS011;26535;48.788;9.214;2024-02-15T06:22:12;9.20;;;3.80;;
40815;SDS011;26535;48.788;9.214;2024-02-15T06:24:38;7.55;;;3.60;;
40815;SDS011;26535;48.788;9.214;2024-02-15T06:27:04;7.07;;;3.20;;
40815;SDS011;26535;48.788;9.214;2024-02-15T06:29:31;10.05;;;4.10;;
40815;SDS011;26535;48.788;9.214;2024-02-15T06:32:15;6.78;;;3.40;;
40815;SDS011;26535;48.788;9.214;2024-02-15T06:34:59;10.13;;;4.00;;
40815;SDS011;26535;48.788;9.214;2024-02-15T06:37:44;6.28;;;3.38;;
40815;SDS011;26535;48.788;9.214;2024-02-15T06:40:28;9.65;;;3.08;;
40815;SDS011;26535;48.788;9.214;2024-02-15T06:42:55;8.27;;;3.15;;
40815;SDS011;26535;48.788;9.214;2024-02-15T06:45:21;6.70;;;2.95;;
40815;SDS011;26535;48.788;9.214;2024-02-15T06:47:48;8.43;;;3.33;;
40815;SDS011;26535;48.788;9.214;2024-02-15T06:50:13;11.45;;;3.80;;
40815;SDS011;26535;48.788;9.214;2024-02-15T06:52:40;7.95;;;3.60;;
40815;SDS011;26535;48.788;9.214;2024-02-15T06:55:06;8.75;;;3.38;;
40815;SDS011;26535;48.788;9.214;2024-02-15T06:57:34;9.30;;;3.92;;
40815;SDS011;26535;48.788;9.214;2024-02-15T07:00:04;9.10;;;3.95;;
40815;SDS011;26535;48.788;9.214;2024-02-15T07:02:35;12.15;;;4.40;;
40815;SDS011;26535;48.788;9.214;2024-02-15T07:05:01;11.85;;;5.00;;
40815;SDS011;26535;48.788;9.214;2024-02-15T07:07:31;9.25;;;4.65;;
40815;SDS011;26535;48.788;9.214;2024-02-15T07:09:57;9.45;;;3.95;;
40815;SDS011;26535;48.788;9.214;2024-02-15T07:12:23;10.13;;;4.13;;
40815;SDS011;26535;48.788;9.214;2024-02-15T07:14:49;11.13;;;3.80;;
40815;SDS011;26535;48.788;9.214;2024-02-15T07:17:15;9.05;;;3.95;;
40815;SDS011;26535;48.788;9.214;2024-02-15T07:19:42;7.60;;;3.80;;
40815;SDS011;26535;48.788;9.214;2024-02-15T07:22:09;9.05;;;4.32;;
40815;SDS011;26535;48.788;9.214;2024-02-15T07:24:35;9.00;;;4.18;;
40815;SDS011;26535;48.788;9.214;2024-02-15T07:27:03;9.75;;;3.67;;
40815;SDS011;26535;48.788;9.214;2024-02-15T07:29:30;9.13;;;3.75;;
40815;SDS011;26535;48.788;9.214;2024-02-15T07:32:00;8.80;;;3.33;;
40815;SDS011;26535;48.788;9.214;2024-02-15T07:34:29;10.50;;;3.30;;
40815;SDS011;26535;48.788;9.214;2024-02-15T07:36:55;7.57;;;3.17;;
40815;SDS011;26535;48.788;9.214;2024-02-15T07:39:23;11.18;;;4.07;;
40815;SDS011;26535;48.788;9.214;2024-02-15T07:41:52;10.82;;;3.42;;
40815;SDS011;26535;48.788;9.214;2024-02-15T07:44:18;6.45;;;3.00;;
40815;SDS011;26535;48.788;9.214;2024-02-15T07:46:45;6.78;;;3.78;;
40815;SDS011;26535;48.788;9.214;2024-02-15T07:49:11;5.53;;;3.15;;
40815;SDS011;26535;48.788;9.214;2024-02-15T07:51:37;8.10;;;3.40;;
40815;SDS011;26535;48.788;9.214;2024-02-15T07:54:02;6.95;;;3.33;;
40815;SDS011;26535;48.788;9.214;2024-02-15T07:56:29;8.80;;;3.30;;
40815;SDS011;26535;48.788;9.214;2024-02-15T07:58:55;7.22;;;2.92;;
40815;SDS011;26535;48.788;9.214;2024-02-15T08:01:21;8.43;;;3.10;;
40815;SDS011;26535;48.788;9.214;2024-02-15T08:03:47;8.48;;;3.72;;
40815;SDS011;26535;48.788;9.214;2024-02-15T08:06:14;9.43;;;3.55;;
40815;SDS011;26535;48.788;9.214;2024-02-15T08:08:45;5.85;;;2.92;;
40815;SDS011;26535;48.788;9.214;2024-02-15T08:11:12;7.88;;;3.15;;
40815;SDS011;26535;48.788;9.214;2024-02-15T08:13:50;8.50;;;3.35;;
40815;SDS011;26535;48.788;9.214;2024-02-15T08:16:19;6.68;;;2.80;;
40815;SDS011;26535;48.788;9.214;2024-02-15T08:18:48;8.65;;;2.92;;
40815;SDS011;26535;48.788;9.214;2024-02-15T08:21:17;5.38;;;2.60;;
40815;SDS011;26535;48.788;9.214;2024-02-15T08:23:44;6.85;;;2.60;;
40815;SDS011;26535;48.788;9.214;2024-02-15T08:26:10;9.05;;;2.67;;
40815;SDS011;26535;48.788;9.214;2024-02-15T08:31:04;6.70;;;2.50;;
40815;SDS011;26535;48.788;9.214;2024-02-15T08:33:30;5.93;;;3.20;;
40815;SDS011;26535;48.788;9.214;2024-02-15T08:35:56;5.90;;;2.65;;
40815;SDS011;26535;48.788;9.214;2024-02-15T08:38:22;8.68;;;3.15;;
40815;SDS011;26535;48.788;9.214;2024-02-15T08:40:48;8.45;;;3.15;;
40815;SDS011;26535;48.788;9.214;2024-02-15T08:43:14;8.15;;;2.97;;
40815;SDS011;26535;48.788;9.214;2024-02-15T08:45:43;9.18;;;3.47;;
40815;SDS011;26535;48.788;9.214;2024-02-15T08:48:09;8.57;;;3.15;;
40815;SDS011;26535;48.788;9.214;2024-02-15T08:50:35;10.73;;;3.25;;
40815;SDS011;26535;48.788;9.214;2024-02-15T08:53:02;8.27;;;3.15;;
40815;SDS011;26535;48.788;9.214;2024-02-15T08:55:31;8.15;;;2.85;;
40815;SDS011;26535;48.788;9.214;2024-02-15T08:57:57;10.35;;;4.05;;
40815;SDS011;26535;48.788;9.214;2024-02-15T09:00:24;8.70;;;3.00;;
40815;SDS011;26535;48.788;9.214;2024-02-15T09:02:51;9.25;;;3.10;;
40815;SDS011;26535;48.788;9.214;2024-02-15T09:05:18;7.35;;;3.05;;
40815;SDS011;26535;48.788;9.214;2024-02-15T09:07:44;7.53;;;3.00;;
40815;SDS011;26535;48.788;9.214;2024-02-15T09:10:13;9.10;;;2.78;;
40815;SDS011;26535;48.788;9.214;2024-02-15T09:12:42;6.05;;;2.58;;
40815;SDS011;26535;48.788;9.214;2024-02-15T09:15:10;7.07;;;2.28;;
40815;SDS011;26535;48.788;9.214;2024-02-15T09:17:36;7.32;;;2.50;;
40815;SDS011;26535;48.788;9.214;2024-02-15T09:20:08;5.18;;;2.17;;
40815;SDS011;26535;48.788;9.214;2024-02-15T09:22:49;5.20;;;2.30;;
40815;SDS011;26535;48.788;9.214;2024-02-15T09:25:16;5.93;;;2.53;;
40815;SDS011;26535;48.788;9.214;2024-02-15T09:27:43;5.60;;;2.40;;
40815;SDS011;26535;48.788;9.214;2024-02-15T09:30:09;6.05;;;2.63;;
40815;SDS011;26535;48.788;9.214;2024-02-15T09:32:36;5.20;;;2.17;;
40815;SDS011;26535;48.788;9.214;2024-02-15T09:35:02;6.57;;;1.90;;
40815;SDS011;26535;48.788;9.214;2024-02-15T09:37:36;7.80;;;2.72;;
40815;SDS011;26535;48.788;9.214;2024-02-15T09:40:15;4.70;;;2.28;;
40815;SDS011;26535;48.788;9.214;2024-02-15T09:42:42;7.03;;;2.35;;
40815;SDS011;26535;48.788;9.214;2024-02-15T09:45:12;7.60;;;2.13;;
40815;SDS011;26535;48.788;9.214;2024-02-15T09:47:39;6.10;;;2.25;;
40815;SDS011;26535;48.788;9.214;2024-02-15T09:50:06;6.80;;;2.95;;
40815;SDS011;26535;48.788;9.214;2024-02-15T09:52:32;5.75;;;2.60;;
40815;SDS011;26535;48.788;9.214;2024-02-15T09:55:04;10.13;;;2.63;;
40815;SDS011;26535;48.788;9.214;2024-02-15T09:57:30;8.55;;;2.75;;
40815;SDS011;26535;48.788;9.214;2024-02-15T10:00:00;9.15;;;2.72;;
40815;SDS011;26535;48.788;9.214;2024-02-15T10:02:29;11.80;;;3.03;;
40815;SDS011;26535;48.788;9.214;2024-02-15T10:04:56;7.13;;;3.00;;
40815;SDS011;26535;48.788;9.214;2024-02-15T10:07:25;7.72;;;3.05;;
40815;SDS011;26535;48.788;9.214;2024-02-15T10:09:54;9.07;;;2.65;;
40815;SDS011;26535;48.788;9.214;2024-02-15T10:12:20;8.82;;;2.80;;
40815;SDS011;26535;48.788;9.214;2024-02-15T10:14:49;8.48;;;2.53;;
40815;SDS011;26535;48.788;9.214;2024-02-15T10:17:19;6.88;;;2.40;;
40815;SDS011;26535;48.788;9.214;2024-02-15T10:20:03;6.55;;;2.63;;
40815;SDS011;26535;48.788;9.214;2024-02-15T10:22:30;10.07;;;3.13;;
40815;SDS011;26535;48.788;9.214;2024-02-15T10:25:10;8.38;;;2.40;;
40815;SDS011;26535;48.788;9.214;2024-02-15T10:27:41;8.70;;;2.95;;
40815;SDS011;26535;48.788;9.214;2024-02-15T10:32:40;5.82;;;2.22;;
40815;SDS011;26535;48.788;9.214;2024-02-15T10:35:06;7.85;;;2.08;;
40815;SDS011;26535;48.788;9.214;2024-02-15T10:37:32;7.13;;;1.70;;
40815;SDS011;26535;48.788;9.214;2024-02-15T10:40:07;8.70;;;1.38;;
40815;SDS011;26535;48.788;9.214;2024-02-15T10:42:33;14.93;;;1.77;;
40815;SDS011;26535;48.788;9.214;2024-02-15T10:45:01;3.53;;;1.25;;
40815;SDS011;26535;48.788;9.214;2024-02-15T10:47:30;4.03;;;1.02;;
40815;SDS011;26535;48.788;9.214;2024-02-15T10:49:57;4.82;;;0.98;;
40815;SDS011;26535;48.788;9.214;2024-02-15T10:52:24;6.03;;;1.15;;
40815;SDS011;26535;48.788;9.214;2024-02-15T10:54:57;6.75;;;1.05;;
40815;SDS011;26535;48.788;9.214;2024-02-15T10:57:31;4.53;;;1.10;;
40815;SDS011;26535;48.788;9.214;2024-02-15T11:00:00;3.65;;;1.10;;
40815;SDS011;26535;48.788;9.214;2024-02-15T11:02:39;5.25;;;1.10;;
40815;SDS011;26535;48.788;9.214;2024-02-15T11:05:11;4.07;;;1.20;;
40815;SDS011;26535;48.788;9.214;2024-02-15T11:07:40;4.88;;;0.80;;
40815;SDS011;26535;48.788;9.214;2024-02-15T11:10:08;4.15;;;1.40;;
40815;SDS011;26535;48.788;9.214;2024-02-15T11:12:36;5.88;;;0.82;;
40815;SDS011;26535;48.788;9.214;2024-02-15T11:15:02;4.05;;;1.35;;
40815;SDS011;26535;48.788;9.214;2024-02-15T11:20:08;3.10;;;0.90;;
40815;SDS011;26535;48.788;9.214;2024-02-15T11:22:37;5.15;;;1.23;;
40815;SDS011;26535;48.788;9.214;2024-02-15T11:25:03;5.85;;;0.98;;
40815;SDS011;26535;48.788;9.214;2024-02-15T11:27:40;5.13;;;1.00;;
40815;SDS011;26535;48.788;9.214;2024-02-15T11:30:06;4.80;;;1.13;;
40815;SDS011;26535;48.788;9.214;2024-02-15T11:32:46;3.92;;;0.80;;
40815;SDS011;26535;48.788;9.214;2024-02-15T11:35:21;3.80;;;0.70;;
40815;SDS011;26535;48.788;9.214;2024-02-15T11:40:15;4.47;;;0.80;;
40815;SDS011;26535;48.788;9.214;2024-02-15T11:42:42;3.80;;;1.05;;
40815;SDS011;26535;48.788;9.214;2024-02-15T11:45:08;3.20;;;1.00;;
40815;SDS011;26535;48.788;9.214;2024-02-15T11:47:37;2.95;;;0.80;;
40815;SDS011;26535;48.788;9.214;2024-02-15T11:50:08;3.13;;;0.82;;
40815;SDS011;26535;48.788;9.214;2024-02-15T11:52:40;3.15;;;1.23;;
40815;SDS011;26535;48.788;9.214;2024-02-15T11:55:07;2.30;;;0.90;;
40815;SDS011;26535;48.788;9.214;2024-02-15T11:57:36;3.40;;;1.00;;
40815;SDS011;26535;48.788;9.214;2024-02-15T12:00:18;2.70;;;0.90;;
40815;SDS011;26535;48.788;9.214;2024-02-15T12:03:03;3.28;;;0.75;;
40815;SDS011;26535;48.788;9.214;2024-02-15T12:05:49;4.65;;;0.63;;
40815;SDS011;26535;48.788;9.214;2024-02-15T12:08:33;1.88;;;0.47;;
40815;SDS011;26535;48.788;9.214;2024-02-15T12:11:17;3.95;;;0.80;;
40815;SDS011;26535;48.788;9.214;2024-02-15T12:14:01;4.28;;;0.63;;
40815;SDS011;26535;48.788;9.214;2024-02-15T12:16:46;2.05;;;0.55;;
40815;SDS011;26535;48.788;9.214;2024-02-15T12:19:30;3.47;;;0.68;;
40815;SDS011;26535;48.788;9.214;2024-02-15T12:21:56;2.58;;;0.50;;
40815;SDS011;26535;48.788;9.214;2024-02-15T12:24:27;3.08;;;0.80;;
40815;SDS011;26535;48.788;9.214;2024-02-15T12:27:00;2.00;;;0.68;;
40815;SDS011;26535;48.788;9.214;2024-02-15T12:29:28;3.10;;;0.80;;
40815;SDS011;26535;48.788;9.214;2024-02-15T12:31:54;2.50;;;0.65;;
40815;SDS011;26535;48.788;9.214;2024-02-15T12:34:20;1.85;;;0.60;;
40815;SDS011;26535;48.788;9.214;2024-02-15T12:36:45;2.75;;;0.68;;
40815;SDS011;26535;48.788;9.214;2024-02-15T12:39:14;6.20;;;1.65;;
40815;SDS011;26535;48.788;9.214;2024-02-15T12:41:49;2.08;;;0.60;;
40815;SDS011;26535;48.788;9.214;2024-02-15T12:44:16;4.33;;;0.87;;
40815;SDS011;26535;48.788;9.214;2024-02-15T12:46:42;2.83;;;0.70;;
40815;SDS011;26535;48.788;9.214;2024-02-15T12:49:12;1.75;;;0.57;;
40815;SDS011;26535;48.788;9.214;2024-02-15T12:51:49;2.55;;;0.80;;
40815;SDS011;26535;48.788;9.214;2024-02-15T12:54:20;3.22;;;1.02;;
40815;SDS011;26535;48.788;9.214;2024-02-15T12:56:47;4.30;;;1.00;;
40815;SDS011;26535;48.788;9.214;2024-02-15T12:59:17;4.32;;;0.95;;
40815;SDS011;26535;48.788;9.214;2024-02-15T13:01:46;3.53;;;1.00;;
40815;SDS011;26535;48.788;9.214;2024-02-15T13:04:24;4.38;;;1.20;;
40815;SDS011;26535;48.788;9.214;2024-02-15T13:09:16;3.65;;;0.73;;
40815;SDS011;26535;48.788;9.214;2024-02-15T13:11:42;3.40;;;0.93;;
40815;SDS011;26535;48.788;9.214;2024-02-15T13:14:10;5.75;;;0.95;;
40815;SDS011;26535;48.788;9.214;2024-02-15T13:16:39;4.80;;;0.90;;
40815;SDS011;26535;48.788;9.214;2024-02-15T13:19:04;2.85;;;1.05;;
40815;SDS011;26535;48.788;9.214;2024-02-15T13:21:32;3.10;;;1.00;;
40815;SDS011;26535;48.788;9.214;2024-02-15T13:23:59;2.45;;;0.68;;
40815;SDS011;26535;48.788;9.214;2024-02-15T13:26:32;4.50;;;0.93;;
40815;SDS011;26535;48.788;9.214;2024-02-15T13:28:59;3.60;;;1.00;;
40815;SDS011;26535;48.788;9.214;2024-02-15T13:31:25;4.38;;;0.75;;
40815;SDS011;26535;48.788;9.214;2024-02-15T13:33:52;3.47;;;0.65;;
40815;SDS011;26535;48.788;9.214;2024-02-15T13:36:19;4.38;;;0.95;;
40815;SDS011;26535;48.788;9.214;2024-02-15T13:38:45;5.15;;;1.10;;
40815;SDS011;26535;48.788;9.214;2024-02-15T13:41:12;4.70;;;0.90;;
40815;SDS011;26535;48.788;9.214;2024-02-15T13:43:37;2.33;;;0.70;;
40815;SDS011;26535;48.788;9.214;2024-02-15T13:48:34;3.33;;;0.70;;
40815;SDS011;26535;48.788;9.214;2024-02-15T13:51:00;2.15;;;0.80;;
40815;SDS011;26535;48.788;9.214;2024-02-15T13:53:25;3.40;;;0.90;;
40815;SDS011;26535;48.788;9.214;2024-02-15T13:55:53;5.80;;;1.10;;
40815;SDS011;26535;48.788;9.214;2024-02-15T13:58:19;4.10;;;1.10;;
40815;SDS011;26535;48.788;9.214;2024-02-15T14:00:50;3.65;;;0.70;;
40815;SDS011;26535;48.788;9.214;2024-02-15T14:03:17;3.15;;;1.20;;
40815;SDS011;26535;48.788;9.214;2024-02-15T14:05:43;5.55;;;2.60;;
40815;SDS011;26535;48.788;9.214;2024-02-15T14:08:11;3.92;;;1.48;;
40815;SDS011;26535;48.788;9.214;2024-02-15T14:10:37;3.78;;;1.05;;
40815;SDS011;26535;48.788;9.214;2024-02-15T14:13:03;3.08;;;1.10;;
40815;SDS011;26535;48.788;9.214;2024-02-15T14:15:34;3.67;;;1.02;;
40815;SDS011;26535;48.788;9.214;2024-02-15T14:18:04;3.05;;;0.90;;
40815;SDS011;26535;48.788;9.214;2024-02-15T14:20:30;4.10;;;1.13;;
40815;SDS011;26535;48.788;9.214;2024-02-15T14:22:56;2.47;;;0.95;;
40815;SDS011;26535;48.788;9.214;2024-02-15T14:25:22;3.13;;;1.00;;
40815;SDS011;26535;48.788;9.214;2024-02-15T14:27:48;4.00;;;0.95;;
40815;SDS011;26535;48.788;9.214;2024-02-15T14:30:14;2.90;;;0.90;;
40815;SDS011;26535;48.788;9.214;2024-02-15T14:32:59;3.33;;;0.80;;
40815;SDS011;26535;48.788;9.214;2024-02-15T14:35:25;3.15;;;0.95;;
40815;SDS011;26535;48.788;9.214;2024-02-15T14:38:04;5.18;;;0.90;;
40815;SDS011;26535;48.788;9.214;2024-02-15T14:40:43;3.45;;;1.05;;
40815;SDS011;26535;48.788;9.214;2024-02-15T14:43:24;3.60;;;1.15;;
40815;SDS011;26535;48.788;9.214;2024-02-15T14:45:51;3.97;;;1.40;;
40815;SDS011;26535;48.788;9.214;2024-02-15T14:48:18;4.90;;;1.95;;
40815;SDS011;26535;48.788;9.214;2024-02-15T14:50:45;4.05;;;1.50;;
40815;SDS011;26535;48.788;9.214;2024-02-15T14:53:14;5.22;;;1.70;;
40815;SDS011;26535;48.788;9.214;2024-02-15T14:55:40;6.15;;;1.75;;
40815;SDS011;26535;48.788;9.214;2024-02-15T14:58:11;4.68;;;1.65;;
40815;SDS011;26535;48.788;9.214;2024-02-15T15:00:38;3.80;;;1.73;;
40815;SDS011;26535;48.788;9.214;2024-02-15T15:03:07;3.90;;;1.42;;
40815;SDS011;26535;48.788;9.214;2024-02-15T15:05:32;3.30;;;1.33;;
40815;SDS011;26535;48.788;9.214;2024-02-15T15:08:17;5.00;;;1.60;;
40815;SDS011;26535;48.788;9.214;2024-02-15T15:11:04;6.70;;;2.40;;
40815;SDS011;26535;48.788;9.214;2024-02-15T15:13:48;5.25;;;2.50;;
40815;SDS011;26535;48.788;9.214;2024-02-15T15:16:14;5.53;;;2.28;;
40815;SDS011;26535;48.788;9.214;2024-02-15T15:18:42;4.03;;;1.20;;
40815;SDS011;26535;48.788;9.214;2024-02-15T15:21:17;3.70;;;1.20;;
40815;SDS011;26535;48.788;9.214;2024-02-15T15:23:51;4.72;;;1.15;;
40815;SDS011;26535;48.788;9.214;2024-02-15T15:26:19;4.10;;;1.33;;
40815;SDS011;26535;48.788;9.214;2024-02-15T15:28:46;2.95;;;1.45;;
40815;SDS011;26535;48.788;9.214;2024-02-15T15:31:29;4.88;;;1.42;;
40815;SDS011;26535;48.788;9.214;2024-02-15T15:33:57;4.25;;;1.00;;
40815;SDS011;26535;48.788;9.214;2024-02-15T15:36:26;4.57;;;1.02;;
40815;SDS011;26535;48.788;9.214;2024-02-15T15:38:56;2.80;;;1.10;;
40815;SDS011;26535;48.788;9.214;2024-02-15T15:41:28;8.15;;;2.50;;
40815;SDS011;26535;48.788;9.214;2024-02-15T15:43:57;5.10;;;1.77;;
40815;SDS011;26535;48.788;9.214;2024-02-15T15:46:22;3.75;;;1.50;;
40815;SDS011;26535;48.788;9.214;2024-02-15T15:48:48;5.00;;;1.40;;
40815;SDS011;26535;48.788;9.214;2024-02-15T15:51:13;4.85;;;1.40;;
40815;SDS011;26535;48.788;9.214;2024-02-15T15:53:42;5.45;;;1.80;;
40815;SDS011;26535;48.788;9.214;2024-02-15T15:56:09;7.28;;;1.73;;
40815;SDS011;26535;48.788;9.214;2024-02-15T15:58:35;3.70;;;1.20;;
40815;SDS011;26535;48.788;9.214;2024-02-15T16:01:09;5.75;;;1.42;;
40815;SDS011;26535;48.788;9.214;2024-02-15T16:03:47;4.07;;;1.00;;
40815;SDS011;26535;48.788;9.214;2024-02-15T16:06:17;3.20;;;1.00;;
40815;SDS011;26535;48.788;9.214;2024-02-15T16:08:43;3.80;;;1.10;;
40815;SDS011;26535;48.788;9.214;2024-02-15T16:11:11;4.80;;;1.10;;
40815;SDS011;26535;48.788;9.214;2024-02-15T16:13:42;3.78;;;1.30;;
40815;SDS011;26535;48.788;9.214;2024-02-15T16:16:08;6.53;;;1.42;;
40815;SDS011;26535;48.788;9.214;2024-02-15T16:18:33;4.10;;;1.20;;
40815;SDS011;26535;48.788;9.214;2024-02-15T16:20:59;2.70;;;1.13;;
40815;SDS011;26535;48.788;9.214;2024-02-15T16:23:25;4.15;;;1.77;;
40815;SDS011;26535;48.788;9.214;2024-02-15T16:25:51;4.13;;;1.20;;
40815;SDS011;26535;48.788;9.214;2024-02-15T16:28:16;4.20;;;1.00;;
40815;SDS011;26535;48.788;9.214;2024-02-15T16:33:33;7.50;;;1.63;;
40815;SDS011;26535;48.788;9.214;2024-02-15T16:36:00;2.97;;;1.25;;
40815;SDS011;26535;48.788;9.214;2024-02-15T16:38:29;4.93;;;1.65;;
40815;SDS011;26535;48.788;9.214;2024-02-15T16:40:54;5.70;;;1.55;;
40815;SDS011;26535;48.788;9.214;2024-02-15T16:43:20;5.85;;;1.70;;
40815;SDS011;26535;48.788;9.214;2024-02-15T16:45:50;6.03;;;1.95;;
40815;SDS011;26535;48.788;9.214;2024-02-15T16:48:16;6.60;;;1.63;;
40815;SDS011;26535;48.788;9.214;2024-02-15T16:50:42;4.30;;;1.55;;
40815;SDS011;26535;48.788;9.214;2024-02-15T16:53:11;3.90;;;1.30;;
40815;SDS011;26535;48.788;9.214;2024-02-15T16:55:37;4.20;;;1.67;;
40815;SDS011;26535;48.788;9.214;2024-02-15T16:58:03;5.55;;;1.90;;
40815;SDS011;26535;48.788;9.214;2024-02-15T17:00:36;6.78;;;2.08;;
40815;SDS011;26535;48.788;9.214;2024-02-15T17:03:04;4.40;;;1.83;;
40815;SDS011;26535;48.788;9.214;2024-02-15T17:05:37;5.95;;;2.28;;
40815;SDS011;26535;48.788;9.214;2024-02-15T17:08:03;6.50;;;2.15;;
40815;SDS011;26535;48.788;9.214;2024-02-15T17:10:31;6.15;;;1.90;;
40815;SDS011;26535;48.788;9.214;2024-02-15T17:12:58;3.63;;;1.60;;
40815;SDS011;26535;48.788;9.214;2024-02-15T17:15:24;4.03;;;1.90;;
40815;SDS011;26535;48.788;9.214;2024-02-15T17:17:55;4.35;;;2.00;;
40815;SDS011;26535;48.788;9.214;2024-02-15T17:20:21;5.55;;;2.22;;
40815;SDS011;26535;48.788;9.214;2024-02-15T17:22:48;6.93;;;2.22;;
40815;SDS011;26535;48.788;9.214;2024-02-15T17:25:14;7.60;;;2.10;;
40815;SDS011;26535;48.788;9.214;2024-02-15T17:27:40;5.75;;;1.98;;
40815;SDS011;26535;48.788;9.214;2024-02-15T17:30:09;6.47;;;2.42;;
40815;SDS011;26535;48.788;9.214;2024-02-15T17:32:39;6.40;;;2.10;;
40815;SDS011;26535;48.788;9.214;2024-02-15T17:35:07;7.03;;;2.97;;
40815;SDS011;26535;48.788;9.214;2024-02-15T17:40:03;7.60;;;2.67;;
40815;SDS011;26535;48.788;9.214;2024-02-15T17:42:29;8.65;;;2.78;;
40815;SDS011;26535;48.788;9.214;2024-02-15T17:44:55;5.00;;;1.90;;
40815;SDS011;26535;48.788;9.214;2024-02-15T17:47:20;6.03;;;2.35;;
40815;SDS011;26535;48.788;9.214;2024-02-15T17:49:46;6.38;;;1.90;;
40815;SDS011;26535;48.788;9.214;2024-02-15T17:52:15;6.72;;;2.30;;
40815;SDS011;26535;48.788;9.214;2024-02-15T17:54:43;5.70;;;2.30;;
40815;SDS011;26535;48.788;9.214;2024-02-15T17:57:09;5.10;;;2.45;;
40815;SDS011;26535;48.788;9.214;2024-02-15T17:59:35;6.00;;;2.30;;
40815;SDS011;26535;48.788;9.214;2024-02-15T18:02:00;6.88;;;2.42;;
40815;SDS011;26535;48.788;9.214;2024-02-15T18:04:26;6.00;;;1.67;;
40815;SDS011;26535;48.788;9.214;2024-02-15T18:06:55;5.15;;;1.98;;
40815;SDS011;26535;48.788;9.214;2024-02-15T18:09:23;6.05;;;1.88;;
40815;SDS011;26535;48.788;9.214;2024-02-15T18:11:55;5.78;;;2.13;;
40815;SDS011;26535;48.788;9.214;2024-02-15T18:14:27;7.47;;;2.70;;
40815;SDS011;26535;48.788;9.214;2024-02-15T18:17:05;5.65;;;2.35;;
40815;SDS011;26535;48.788;9.214;2024-02-15T18:19:31;6.45;;;2.10;;
40815;SDS011;26535;48.788;9.214;2024-02-15T18:21:56;6.45;;;2.47;;
40815;SDS011;26535;48.788;9.214;2024-02-15T18:27:07;7.93;;;2.40;;
40815;SDS011;26535;48.788;9.214;2024-02-15T18:29:39;6.43;;;2.88;;
40815;SDS011;26535;48.788;9.214;2024-02-15T18:32:31;4.90;;;2.70;;
40815;SDS011;26535;48.788;9.214;2024-02-15T18:35:00;6.75;;;2.70;;
40815;SDS011;26535;48.788;9.214;2024-02-15T18:37:26;7.13;;;3.15;;
40815;SDS011;26535;48.788;9.214;2024-02-15T18:39:52;5.38;;;2.40;;
40815;SDS011;26535;48.788;9.214;2024-02-15T18:42:17;4.63;;;2.50;;
40815;SDS011;26535;48.788;9.214;2024-02-15T18:44:49;6.50;;;2.53;;
40815;SDS011;26535;48.788;9.214;2024-02-15T18:47:15;5.95;;;2.45;;
40815;SDS011;26535;48.788;9.214;2024-02-15T18:49:41;7.35;;;2.50;;
40815;SDS011;26535;48.788;9.214;2024-02-15T18:52:06;6.35;;;2.60;;
40815;SDS011;26535;48.788;9.214;2024-02-15T18:54:32;7.22;;;2.53;;
40815;SDS011;26535;48.788;9.214;2024-02-15T18:56:58;6.78;;;2.55;;
40815;SDS011;26535;48.788;9.214;2024-02-15T18:59:24;5.82;;;2.28;;
40815;SDS011;26535;48.788;9.214;2024-02-15T19:01:50;6.10;;;2.25;;
40815;SDS011;26535;48.788;9.214;2024-02-15T19:04:16;6.03;;;2.17;;
40815;SDS011;26535;48.788;9.214;2024-02-15T19:06:42;5.18;;;2.38;;
40815;SDS011;26535;48.788;9.214;2024-02-15T19:09:08;8.13;;;2.80;;
40815;SDS011;26535;48.788;9.214;2024-02-15T19:11:34;5.97;;;2.47;;
40815;SDS011;26535;48.788;9.214;2024-02-15T19:14:03;5.72;;;2.13;;
40815;SDS011;26535;48.788;9.214;2024-02-15T19:16:29;7.95;;;2.42;;
40815;SDS011;26535;48.788;9.214;2024-02-15T19:18:57;4.63;;;2.28;;
40815;SDS011;26535;48.788;9.214;2024-02-15T19:21:25;5.88;;;2.67;;
40815;SDS011;26535;48.788;9.214;2024-02-15T19:23:51;3.95;;;1.80;;
40815;SDS011;26535;48.788;9.214;2024-02-15T19:26:16;4.93;;;1.92;;
40815;SDS011;26535;48.788;9.214;2024-02-15T19:28:42;3.33;;;1.90;;
40815;SDS011;26535;48.788;9.214;2024-02-15T19:31:10;5.28;;;2.10;;
40815;SDS011;26535;48.788;9.214;2024-02-15T19:33:37;4.47;;;2.03;;
40815;SDS011;26535;48.788;9.214;2024-02-15T19:36:03;6.00;;;2.35;;
40815;SDS011;26535;48.788;9.214;2024-02-15T19:38:29;5.82;;;2.20;;
40815;SDS011;26535;48.788;9.214;2024-02-15T19:40:55;5.47;;;1.90;;
40815;SDS011;26535;48.788;9.214;2024-02-15T19:43:21;4.65;;;2.30;;
40815;SDS011;26535;48.788;9.214;2024-02-15T19:45:49;5.40;;;2.20;;
40815;SDS011;26535;48.788;9.214;2024-02-15T19:48:14;5.45;;;2.50;;
40815;SDS011;26535;48.788;9.214;2024-02-15T19:50:40;5.72;;;2.58;;
40815;SDS011;26535;48.788;9.214;2024-02-15T19:53:06;5.78;;;2.60;;
40815;SDS011;26535;48.788;9.214;2024-02-15T19:55:32;5.90;;;2.92;;
40815;SDS011;26535;48.788;9.214;2024-02-15T19:57:58;6.70;;;2.97;;
40815;SDS011;26535;48.788;9.214;2024-02-15T20:00:24;4.25;;;2.42;;
40815;SDS011;26535;48.788;9.214;2024-02-15T20:02:50;9.48;;;4.00;;
40815;SDS011;26535;48.788;9.214;2024-02-15T20:05:18;7.32;;;4.07;;
40815;SDS011;26535;48.788;9.214;2024-02-15T20:07:44;7.47;;;4.03;;
40815;SDS011;26535;48.788;9.214;2024-02-15T20:10:10;7.75;;;4.22;;
40815;SDS011;26535;48.788;9.214;2024-02-15T20:12:36;8.85;;;4.35;;
40815;SDS011;26535;48.788;9.214;2024-02-15T20:15:02;8.38;;;4.68;;
40815;SDS011;26535;48.788;9.214;2024-02-15T20:17:28;8.75;;;4.15;;
40815;SDS011;26535;48.788;9.214;2024-02-15T20:19:55;8.23;;;4.20;;
40815;SDS011;26535;48.788;9.214;2024-02-15T20:22:20;8.98;;;4.38;;
40815;SDS011;26535;48.788;9.214;2024-02-15T20:24:46;11.30;;;5.03;;
40815;SDS011;26535;48.788;9.214;2024-02-15T20:27:12;8.98;;;4.25;;
40815;SDS011;26535;48.788;9.214;2024-02-15T20:29:38;10.25;;;4.97;;
40815;SDS011;26535;48.788;9.214;2024-02-15T20:32:04;9.07;;;4.40;;
40815;SDS011;26535;48.788;9.214;2024-02-15T20:34:31;7.10;;;3.70;;
40815;SDS011;26535;48.788;9.214;2024-02-15T20:36:58;6.38;;;3.22;;
40815;SDS011;26535;48.788;9.214;2024-02-15T20:39:24;9.65;;;3.90;;
40815;SDS011;26535;48.788;9.214;2024-02-15T20:41:51;6.70;;;3.17;;
40815;SDS011;26535;48.788;9.214;2024-02-15T20:44:17;9.05;;;3.40;;
40815;SDS011;26535;48.788;9.214;2024-02-15T20:46:43;7.50;;;3.70;;
40815;SDS011;26535;48.788;9.214;2024-02-15T20:49:09;4.55;;;2.28;;
40815;SDS011;26535;48.788;9.214;2024-02-15T20:51:36;6.93;;;3.42;;
40815;SDS011;26535;48.788;9.214;2024-02-15T20:54:02;10.43;;;4.18;;
40815;SDS011;26535;48.788;9.214;2024-02-15T20:56:28;7.97;;;3.75;;
40815;SDS011;26535;48.788;9.214;2024-02-15T20:58:54;10.00;;;5.05;;
40815;SDS011;26535;48.788;9.214;2024-02-15T21:01:21;7.75;;;4.13;;
40815;SDS011;26535;48.788;9.214;2024-02-15T21:03:49;7.03;;;4.18;;